Saint George, Canada
Current Conditions -  °F | °C
As of 10:00 AM on Tuesday 21 Oct 2014 (Local Time) from CYSJ Reporting Station
Broken Clouds Broken Clouds  
Wind Chill: 38°   Ceiling: 7800
Heat Index: 41°   Visibility: 15mi
Dew Point: 34°   Wind: 5mph
Humidity: 76%   Direction: 60°ENE
Pressure: 30.12"   Gusts: NA
Location:  45.13°N, 66.82°W
Report Text: CYSJ 211300Z 06004KT 15SM BKN078 BKN260 05/01 A3012 RMK AC5CI2 SLP205
Loading
Personal Weather Stations






























Interactive Weather Map
Tropical Storm Tracking
New forecast layout! Learn more

10-Day Weather Forecast

Advertisements
Track Severe Weather on mobile